Time;durP1;ratioP1;P1;durP2;ratioP2;P2;SDS_P1;SDS_P2;PMS_P1;PMS_P2;Temp;Humidity;BMP_temperature;BMP_pressure;BME280_temperature;BME280_humidity;BME280_pressure;Samples;Min_cycle;Max_cycle;Signal;HPM_P1;HPM_P2
2023/02/08 00:09:22;;;;;;;8.45;5.05;;;;;;;;;;20837467;28;20414;-65
2023/02/08 00:19:25;;;;;;;8.93;5.28;;;;;;;;;;20832672;28;20049;-63
2023/02/08 00:29:28;;;;;;;10.25;4.90;;;;;;;;;;20832343;28;20122;-66
2023/02/08 00:39:30;;;;;;;6.32;5.10;;;;;;;;;;20831710;28;20136;-67
2023/02/08 00:49:35;;;;;;;8.13;4.93;;;;;;;;;;20830677;28;20057;-65
2023/02/08 00:59:36;;;;;;;6.88;5.10;;;;;;;;;;20836283;28;20080;-62
2023/02/08 01:09:38;;;;;;;7.72;5.43;;;;;;;;;;20831689;28;20405;-64
2023/02/08 01:19:40;;;;;;;7.03;4.70;;;;;;;;;;20830843;28;20041;-64
2023/02/08 01:29:41;;;;;;;8.93;4.55;;;5.90;60.30;;;;;;20828524;28;20062;-64
2023/02/08 01:39:43;;;;;;;7.07;4.05;;;5.90;60.30;;;;;;20829667;28;20128;-65
2023/02/08 01:49:45;;;;;;;7.55;4.40;;;5.80;60.80;;;;;;20829233;28;20108;-68
2023/02/08 01:59:53;;;;;;;5.60;3.83;;;5.70;61.30;;;;;;20829074;28;20474;-65
2023/02/08 02:10:01;;;;;;;7.10;3.40;;;5.70;61.30;;;;;;20842296;28;20068;-70
2023/02/08 02:20:28;;;;;;;5.10;3.47;;;5.60;61.60;;;;;;20843558;28;20049;-68
2023/02/08 02:30:47;;;;;;;;;;;5.60;61.80;;;;;;20843160;28;20406;-67
2023/02/08 02:40:54;;;;;;;4.35;2.83;;;5.60;61.80;;;;;;20842187;28;20464;-63
2023/02/08 02:51:07;;;;;;;5.43;3.80;;;5.60;62.20;;;;;;20841485;28;20060;-64
2023/02/08 03:01:09;;;;;;;4.93;3.58;;;5.50;62.70;;;;;;20840649;28;20061;-69
2023/02/08 03:11:10;;;;;;;6.18;3.50;;;5.70;62.00;;;;;;20839642;28;20085;-64
2023/02/08 03:21:33;;;;;;;6.00;3.20;;;5.50;62.70;;;;;;20837179;28;20046;-67
2023/02/08 03:31:51;;;;;;;3.97;3.00;;;5.50;62.70;;;;;;20836415;28;20057;-63
2023/02/08 03:41:59;;;;;;;4.68;3.13;;;5.60;62.50;;;;;;20837002;28;20053;-68
2023/02/08 03:52:05;;;;;;;4.95;3.38;;;5.50;62.90;;;;;;20836566;28;20512;-69
2023/02/08 04:02:12;;;;;;;6.72;4.35;;;5.50;63.30;;;;;;20835657;28;20050;-64
2023/02/08 04:12:17;;;;;;;5.50;3.80;;;5.50;63.50;;;;;;20834102;28;20050;-67
2023/02/08 04:22:19;;;;;;;5.75;3.95;;;5.40;64.10;;;;;;20832045;28;20119;-68
2023/02/08 04:32:21;;;;;;;6.20;4.05;;;5.30;64.50;;;;;;20832326;28;20068;-68
2023/02/08 04:42:23;;;;;;;5.45;3.28;;;5.20;65.00;;;;;;20833372;28;20045;-69
2023/02/08 04:52:35;;;;;;;4.13;3.20;;;5.20;64.90;;;;;;20831260;28;20060;-68
2023/02/08 05:02:38;;;;;;;4.35;3.10;;;5.10;64.90;;;;;;20830681;28;20045;-67
2023/02/08 05:12:40;;;;;;;6.20;3.72;;;5.10;65.10;;;;;;20832109;28;20064;-67
2023/02/08 05:22:43;;;;;;;4.55;2.97;;;5.00;65.60;;;;;;20835862;28;20049;-67
2023/02/08 05:32:45;;;;;;;5.18;3.45;;;5.10;65.30;;;;;;20831367;28;20441;-67
2023/02/08 05:42:47;;;;;;;4.82;2.78;;;5.10;65.40;;;;;;20840069;28;20136;-67
2023/02/08 05:52:48;;;;;;;3.08;2.47;;;5.00;65.30;;;;;;20844889;28;20061;-63
2023/02/08 06:02:50;;;;;;;4.15;2.53;;;5.30;64.30;;;;;;20844213;28;20081;-70
2023/02/08 06:12:53;;;;;;;3.03;1.88;;;5.30;64.20;;;;;;20844301;28;20486;-69
2023/02/08 06:22:55;;;;;;;2.97;2.00;;;5.30;64.00;;;;;;20842111;28;20088;-65
2023/02/08 06:32:57;;;;;;;3.80;2.13;;;5.30;64.10;;;;;;20841041;28;20053;-66
2023/02/08 06:42:59;;;;;;;2.70;2.00;;;5.30;64.40;;;;;;20841766;28;20052;-70
2023/02/08 06:53:00;;;;;;;2.40;1.60;;;5.30;64.20;;;;;;20839650;28;20050;-68
2023/02/08 07:03:03;;;;;;;4.60;1.73;;;5.40;64.00;;;;;;20839417;28;20049;-68
2023/02/08 07:13:05;;;;;;;4.10;2.33;;;5.30;64.80;;;;;;20839888;28;20053;-66
2023/02/08 07:23:07;;;;;;;2.80;2.05;;;5.30;64.90;;;;;;20838270;28;20192;-64
2023/02/08 07:33:08;;;;;;;2.58;1.98;;;5.40;64.50;;;;;;20842389;28;20084;-62
2023/02/08 07:43:10;;;;;;;3.22;1.80;;;5.50;64.50;;;;;;20849003;28;20057;-69
2023/02/08 07:53:12;;;;;;;3.00;2.20;;;5.70;64.30;;;;;;20844738;28;20136;-64
2023/02/08 08:03:14;;;;;;;5.88;1.98;;;5.70;64.40;;;;;;20853239;28;20095;-68
2023/02/08 08:13:16;;;;;;;3.28;1.50;;;5.80;64.40;;;;;;20835482;28;20481;-66
2023/02/08 08:23:18;;;;;;;2.45;1.80;;;5.80;64.20;;;;;;20832641;28;20084;-70
2023/02/08 08:33:20;;;;;;;3.08;1.65;;;5.90;64.50;;;;;;20833768;28;20053;-68
2023/02/08 08:43:21;;;;;;;2.83;1.65;;;6.00;64.20;;;;;;20832700;28;20061;-69
2023/02/08 08:53:23;;;;;;;2.92;1.65;;;6.00;64.00;;;;;;20831785;28;20486;-68
2023/02/08 09:03:26;;;;;;;3.78;1.40;;;6.20;63.90;;;;;;20830535;28;20061;-65
2023/02/08 09:13:28;;;;;;;3.17;1.70;;;6.30;63.70;;;;;;20830590;28;20138;-68
2023/02/08 09:23:29;;;;;;;1.88;1.50;;;6.30;64.10;;;;;;20829502;28;20111;-68
2023/02/08 09:33:31;;;;;;;2.60;1.70;;;6.60;63.60;;;;;;20835916;28;20053;-68
2023/02/08 09:43:42;;;;;;;3.58;1.90;;;7.00;62.50;;;;;;20838649;28;20482;-70
2023/02/08 09:53:49;;;;;;;5.53;1.65;;;7.10;62.40;;;;;;20830605;28;20052;-70
2023/02/08 10:04:04;;;;;;;2.70;1.27;;;7.30;61.60;;;;;;20829950;28;20148;-70
2023/02/08 10:14:39;;;;;;;2.38;1.60;;;7.60;60.80;;;;;;20831572;28;20493;-74
2023/02/08 10:25:01;;;;;;;3.10;1.40;;;7.90;60.50;;;;;;20834371;28;20046;-71
2023/02/08 10:35:10;;;;;;;2.15;1.17;;;8.30;59.30;;;;;;20844781;28;20056;-70
2023/02/08 10:45:44;;;;;;;23.08;5.47;;;8.60;57.80;;;;;;20843211;28;20100;-61
2023/02/08 10:55:47;;;;;;;3.67;1.08;;;9.20;60.30;;;;;;20840656;28;20440;-59
2023/02/08 11:05:50;;;;;;;4.28;1.63;;;9.90;54.00;;;;;;20841211;28;20053;-62
2023/02/08 11:16:04;;;;;;;2.10;1.15;;;9.50;55.70;;;;;;20839939;28;20053;-61
2023/02/08 11:26:30;;;;;;;3.38;0.98;;;9.60;54.90;;;;;;20840131;28;20524;-62
2023/02/08 11:36:33;;;;;;;2.67;1.20;;;9.70;54.50;;;;;;20837130;28;20068;-69
2023/02/08 11:46:36;;;;;;;3.08;1.17;;;10.20;54.80;;;;;;20836425;28;20055;-70
2023/02/08 11:56:37;;;;;;;3.65;1.20;;;11.10;51.50;;;;;;20838284;28;20048;-60
2023/02/08 12:06:41;;;;;;;6.75;1.23;;;10.70;52.70;;;;;;20838304;28;20227;-64
2023/02/08 12:16:58;;;;;;;4.83;1.27;;;10.80;53.40;;;;;;20835258;28;20045;-68
2023/02/08 12:27:28;;;;;;;1.70;1.20;;;11.10;53.10;;;;;;20833580;28;20067;-67
2023/02/08 12:48:41;;;;;;;1.27;0.70;;;10.90;51.90;;;;;;20822390;28;20140;-65
2023/02/08 12:58:46;;;;;;;4.10;1.00;;;10.80;51.70;;;;;;20823470;28;20080;-61
2023/02/08 13:08:54;;;;;;;;;;;10.80;51.70;;;;;;20824578;28;20049;-59
2023/02/08 13:19:25;;;;;;;2.85;0.77;;;10.70;51.10;;;;;;20829938;28;19975;-61
2023/02/08 13:29:28;;;;;;;2.90;0.88;;;10.80;50.90;;;;;;20820429;28;20132;-59
2023/02/08 13:39:40;;;;;;;4.43;1.10;;;10.90;50.70;;;;;;20820024;28;20478;-59
2023/02/08 13:49:53;;;;;;;4.38;1.90;;;11.00;50.20;;;;;;20820787;28;20081;-61
2023/02/08 14:00:19;;;;;;;2.13;1.15;;;11.00;50.20;;;;;;20826730;28;20056;-64
2023/02/08 14:10:30;;;;;;;2.33;1.30;;;11.20;50.20;;;;;;20844713;28;20049;-61
2023/02/08 14:20:38;;;;;;;3.35;1.23;;;11.10;50.10;;;;;;20842854;28;20097;-61
2023/02/08 14:30:41;;;;;;;2.40;1.10;;;11.10;50.80;;;;;;20843107;28;20056;-59
2023/02/08 14:40:57;;;;;;;2.05;1.00;;;11.10;50.80;;;;;;20842812;28;20088;-58
2023/02/08 14:51:10;;;;;;;2.05;0.90;;;11.20;50.40;;;;;;20842472;28;20080;-59
2023/02/08 15:01:17;;;;;;;2.67;1.00;;;11.10;50.90;;;;;;20842106;28;20409;-60
2023/02/08 15:11:26;;;;;;;10.85;1.83;;;11.20;50.70;;;;;;20841700;28;20053;-64
2023/02/08 15:21:31;;;;;;;2.65;1.00;;;11.10;50.80;;;;;;20852687;28;20057;-63
2023/02/08 15:31:34;;;;;;;2.22;0.90;;;11.10;50.80;;;;;;20839447;28;20458;-61
2023/02/08 15:41:37;;;;;;;2.63;1.52;;;11.20;50.50;;;;;;20852614;28;20053;-60
2023/02/08 15:51:38;;;;;;;3.53;1.30;;;11.30;50.10;;;;;;20837277;28;20159;-59
2023/02/08 16:01:39;;;;;;;1.58;0.90;;;11.30;50.10;;;;;;20836100;28;20045;-60
2023/02/08 16:11:43;;;;;;;2.55;0.93;;;11.40;49.80;;;;;;20837908;28;20045;-61
2023/02/08 16:21:44;;;;;;;2.85;1.60;;;11.40;49.80;;;;;;20832867;28;20072;-58
2023/02/08 16:31:47;;;;;;;2.40;1.50;;;11.40;50.00;;;;;;20833882;28;20076;-62
2023/02/08 16:41:58;;;;;;;5.88;3.42;;;11.30;49.70;;;;;;20833579;28;20046;-62
2023/02/08 16:51:59;;;;;;;5.20;1.92;;;11.70;51.70;;;;;;20876237;28;20068;-70
2023/02/08 17:02:01;;;;;;;4.63;2.08;;;12.10;50.70;;;;;;20909297;28;20056;-63
2023/02/08 17:12:10;;;;;;;;;;;12.10;51.00;;;;;;20884560;28;20135;-62
2023/02/08 17:22:12;;;;;;;5.40;2.10;;;11.90;51.10;;;;;;20847571;28;19943;-59
2023/02/08 17:32:14;;;;;;;6.18;2.42;;;11.70;51.30;;;;;;20857841;28;20048;-63
2023/02/08 17:42:17;;;;;;;5.20;2.50;;;11.50;51.20;;;;;;20926838;28;20123;-62
2023/02/08 17:52:19;;;;;;;12.10;4.25;;;11.30;51.60;;;;;;20887912;28;20444;-66
2023/02/08 18:02:21;;;;;;;8.30;2.83;;;11.60;55.20;;;;;;20924901;28;20045;-58
2023/02/08 18:12:22;;;;;;;12.27;4.63;;;11.50;52.20;;;;;;20900862;28;20053;-59
2023/02/08 18:22:26;;;;;;;7.35;2.55;;;11.30;52.20;;;;;;20919211;28;20055;-62
2023/02/08 18:32:28;;;;;;;8.68;4.55;;;11.30;52.40;;;;;;20922030;28;20056;-62
2023/02/08 18:42:31;;;;;;;11.27;4.72;;;11.20;53.00;;;;;;20909964;28;20045;-63
2023/02/08 18:52:33;;;;;;;10.75;4.55;;;11.20;53.60;;;;;;20912160;28;20057;-62
2023/02/08 19:02:37;;;;;;;11.98;5.30;;;11.20;53.50;;;;;;20915087;28;20045;-62
2023/02/08 19:12:40;;;;;;;21.20;7.65;;;11.10;53.80;;;;;;20915616;28;20080;-60
2023/02/08 19:22:42;;;;;;;10.82;5.45;;;11.20;57.10;;;;;;20913110;28;20359;-60
2023/02/08 19:32:43;;;;;;;4.97;3.10;;;12.00;61.60;;;;;;20920813;28;20131;-62
2023/02/08 19:42:45;;;;;;;8.25;2.83;;;11.30;54.40;;;;;;20920508;28;20478;-58
2023/02/08 19:52:47;;;;;;;8.27;3.17;;;11.20;55.10;;;;;;20919557;28;20071;-57
2023/02/08 20:02:48;;;;;;;9.23;4.57;;;10.90;56.00;;;;;;20917958;28;20049;-60
2023/02/08 20:12:50;;;;;;;4.63;2.60;;;10.90;56.30;;;;;;20918209;28;20056;-59
2023/02/08 20:22:51;;;;;;;4.80;2.65;;;10.70;57.50;;;;;;20916830;28;20053;-60
2023/02/08 20:32:54;;;;;;;9.50;3.72;;;10.70;57.40;;;;;;20916200;28;20060;-59
2023/02/08 20:42:55;;;;;;;10.00;6.45;;;10.70;56.70;;;;;;20915949;28;20068;-61
2023/02/08 20:52:57;;;;;;;3.58;2.28;;;10.60;55.20;;;;;;20915097;28;20056;-62
2023/02/08 21:02:59;;;;;;;4.68;2.63;;;10.60;54.90;;;;;;20913211;28;20140;-59
2023/02/08 21:13:01;;;;;;;5.22;2.40;;;10.40;55.40;;;;;;20913316;28;20111;-59
2023/02/08 21:23:02;;;;;;;4.45;2.83;;;10.20;55.90;;;;;;20912713;28;20048;-63
2023/02/08 21:33:04;;;;;;;6.28;2.83;;;10.10;56.50;;;;;;20912281;28;20045;-62
2023/02/08 21:43:06;;;;;;;4.25;2.97;;;10.00;56.90;;;;;;20910606;28;20057;-59
2023/02/08 22:03:30;;;;;;;4.15;3.05;;;10.00;57.40;;;;;;20911990;28;20098;-61
2023/02/08 22:13:32;;;;;;;3.20;2.30;;;9.90;57.70;;;;;;20911027;28;20401;-58
2023/02/08 22:23:34;;;;;;;4.05;2.85;;;9.80;57.70;;;;;;20918845;28;20049;-60
2023/02/08 22:33:35;;;;;;;4.22;2.65;;;9.70;58.20;;;;;;20925251;28;20053;-60
2023/02/08 22:43:37;;;;;;;6.45;3.50;;;9.50;58.80;;;;;;20923034;28;20041;-59
2023/02/08 22:53:39;;;;;;;6.43;3.10;;;9.60;58.80;;;;;;20924065;28;20048;-63
2023/02/08 23:03:42;;;;;;;5.07;3.50;;;9.70;58.80;;;;;;20923596;28;20053;-61
2023/02/08 23:13:43;;;;;;;4.57;2.95;;;9.70;58.60;;;;;;20922875;28;20409;-59
2023/02/08 23:23:48;;;;;;;4.20;3.10;;;9.50;58.90;;;;;;20921724;28;20081;-60
2023/02/08 23:33:51;;;;;;;4.25;3.03;;;9.50;59.10;;;;;;20918487;28;20056;-61
2023/02/08 23:43:53;;;;;;;6.38;3.60;;;9.30;60.00;;;;;;20919379;28;20049;-62
2023/02/08 23:53:55;;;;;;;5.18;3.40;;;9.30;61.00;;;;;;20919901;28;20397;-58
